Fidato — PB5970 — position and weather

sailwx.info

Track history (hours):
 
Tides and Currents Weather Stations Pressure Air Temp Water Temp Dewpoint Dewpoint Depression Visibility Wind Speed Wind Dir Waves Ship Positions

Fidato

Last reported at 2017-Dec-17 03:52 UTC. Time now 2017-Dec-17 04:21 UTC.
Position N 52°38' E 006°04'.

Length 135 m; draft 2.5 m.

Type: Ship. MMSI: 244670975.

Date/timePositionNaut miles runAvg speedWind from/ knotsBaromVisibWave heightAir tempDewpointWater temp
2017-Dec-17 03:52N 52°38' E 006°04'0 0.0
2017-Dec-17 03:29N 52°38' E 006°04'0 0.0
2017-Dec-17 03:00N 52°38' E 006°04'0 0.0
2017-Dec-17 02:30N 52°38' E 006°04'0 0.0
2017-Dec-17 02:00N 52°38' E 006°04'0 0.0
2017-Dec-17 01:30N 52°38' E 006°04'0 0.0
2017-Dec-17 01:00N 52°38' E 006°04'0 0.0
2017-Dec-17 00:30N 52°38' E 006°04'0 0.0
2017-Dec-17 00:00N 52°38' E 006°04'0 0.0
2017-Dec-16 23:30N 52°38' E 006°04'0 0.0
2017-Dec-16 22:59N 52°38' E 006°04'0 0.0
2017-Dec-16 22:29N 52°38' E 006°04'0 0.0
2017-Dec-16 22:00N 52°38' E 006°04'0 0.0
2017-Dec-16 21:28N 52°38' E 006°04'0 0.0
2017-Dec-16 20:59N 52°38' E 006°04'0 0.0
2017-Dec-16 20:30N 52°38' E 006°04'0 0.0
2017-Dec-16 19:59N 52°38' E 006°04'0 0.0
2017-Dec-16 19:24N 52°38' E 006°04'0 0.0
2017-Dec-16 19:00N 52°38' E 006°04'0 0.0
2017-Dec-16 18:30N 52°38' E 006°04'0 0.0
2017-Dec-16 18:00N 52°38' E 006°04'0 0.0
2017-Dec-16 17:29N 52°38' E 006°04'0 0.0
2017-Dec-16 17:00N 52°38' E 006°04'0 0.0
2017-Dec-16 16:25N 52°38' E 006°04'0 0.0
2017-Dec-16 15:59N 52°38' E 006°04'0 0.0
2017-Dec-16 15:30N 52°38' E 006°04'0 0.0
2017-Dec-16 15:00N 52°38' E 006°04'0 0.0
2017-Dec-16 14:30N 52°38' E 006°04'0 0.0
2017-Dec-16 14:00N 52°38' E 006°04'0 0.0
2017-Dec-16 13:30N 52°38' E 006°04'3 5.7
2017-Dec-16 13:00N 52°35' E 006°05'1 1.1
2017-Dec-16 12:23N 52°35' E 006°06'0 0.0
2017-Dec-16 09:38N 52°35' E 006°06'0 0.0
2017-Dec-16 09:23N 52°35' E 006°06'0 0.0
2017-Dec-16 09:00N 52°35' E 006°06'0 0.0
2017-Dec-16 08:30N 52°35' E 006°06'0 0.0
2017-Dec-16 08:00N 52°35' E 006°06'0 0.0
2017-Dec-16 07:30N 52°35' E 006°06'0 0.0
2017-Dec-16 07:00N 52°35' E 006°06'0 0.0
2017-Dec-16 06:30N 52°35' E 006°06'0 0.1
2017-Dec-16 06:00N 52°35' E 006°06'0 0.0
2017-Dec-16 05:30N 52°35' E 006°06'0 0.0
2017-Dec-16 05:00N 52°35' E 006°06'0 0.0
2017-Dec-15 18:37N 52°35' E 006°06'0 0.7
2017-Dec-15 18:30N 52°35' E 006°06'1 1.9
2017-Dec-15 18:00N 52°36' E 006°05'2 4.4
2017-Dec-15 17:30N 52°38' E 006°05'2 4.0
2017-Dec-15 17:00N 52°38' E 006°01'3 5.7
2017-Dec-15 16:30N 52°38' E 005°57'3 6.3
2017-Dec-15 16:00N 52°37' E 005°52'3 5.2
2017-Dec-15 15:30N 52°37' E 005°48'2 3.5
2017-Dec-15 15:00N 52°36' E 005°45'3 6.6
2017-Dec-15 14:30N 52°36' E 005°39'3 6.9
2017-Dec-15 14:00N 52°37' E 005°34'4 7.9
2017-Dec-15 13:30N 52°34' E 005°29'3 5.7
2017-Dec-15 13:00N 52°32' E 005°26'1 2.1
2017-Dec-15 12:30N 52°31' E 005°25'4 7.3
2017-Dec-15 12:00N 52°30' E 005°20'4 7.3
2017-Dec-15 11:30N 52°27' E 005°15'4 7.5
2017-Dec-15 11:00N 52°25' E 005°10'4 7.6
2017-Dec-15 10:30N 52°23' E 005°04'4 7.1
2017-Dec-15 10:01N 52°22' E 004°59'1 2.6
2017-Dec-15 09:31N 52°23' E 004°57'3 6.7
2017-Dec-15 09:00N 52°20' E 005°01'4 7.2
2017-Dec-15 08:30N 52°17' E 005°01'4 7.5
2017-Dec-15 08:00N 52°13' E 005°00'4 7.3
2017-Dec-15 07:30N 52°09' E 005°00'4 7.3
2017-Dec-15 07:00N 52°07' E 005°05'4 7.2
2017-Dec-15 06:30N 52°03' E 005°06'4 7.1
2017-Dec-15 06:00N 52°01' E 005°10'4 7.3
2017-Dec-15 05:24N 51°59' E 005°16'1 3.5
2017-Dec-15 05:00N 51°58' E 005°18'0 0.0
2017-Dec-15 04:30N 51°58' E 005°18'0 0.0
2017-Dec-15 04:00N 51°58' E 005°18'0 0.0
2017-Dec-15 02:30N 51°58' E 005°18'0 0.0
2017-Dec-15 01:00N 51°58' E 005°18'0 0.0
2017-Dec-15 00:30N 51°58' E 005°18'0 0.0
2017-Dec-14 18:27N 51°58' E 005°18'0 0.0
2017-Dec-14 18:00N 51°58' E 005°18'0 0.0
2017-Dec-14 17:28N 51°58' E 005°18'0 0.0
2017-Dec-14 16:58N 51°58' E 005°18'0 0.0
2017-Dec-14 16:30N 51°58' E 005°18'0 0.0
2017-Dec-14 16:00N 51°58' E 005°18'0 0.0
2017-Dec-14 15:00N 51°58' E 005°18'0 0.0
2017-Dec-14 14:30N 51°58' E 005°18'0 0.0
2017-Dec-14 14:00N 51°58' E 005°18'0 0.0
2017-Dec-14 13:30N 51°58' E 005°18'0 0.0
2017-Dec-14 13:00N 51°58' E 005°18'0 0.0
2017-Dec-14 12:30N 51°58' E 005°18'0 0.0
2017-Dec-14 12:00N 51°58' E 005°18'0 0.0
2017-Dec-14 11:30N 51°58' E 005°18'0 0.0
2017-Dec-14 11:00N 51°58' E 005°18'0 0.0
2017-Dec-14 10:30N 51°58' E 005°18'0 0.0
2017-Dec-14 09:59N 51°58' E 005°18'0 0.0
2017-Dec-14 09:30N 51°58' E 005°18'0 0.0
2017-Dec-14 09:00N 51°58' E 005°18'24 1.4
2017-Dec-13 15:56N 51°52' E 005°56'3 6.5
2017-Dec-13 15:30N 51°53' E 006°01'510.0
2017-Dec-13 15:00N 51°51' E 006°08'16 9.0
2017-Dec-13 13:14N 51°41' E 006°28'2 9.3
2017-Dec-13 13:00N 51°40' E 006°31'4 7.2
2017-Dec-13 12:30N 51°38' E 006°35'4 7.3
2017-Dec-13 12:00N 51°35' E 006°39'4 8.4
2017-Dec-13 11:29N 51°31' E 006°43'3 6.4
2017-Dec-13 11:00N 51°28' E 006°43'9 7.6
2017-Dec-13 09:48N 51°19' E 006°44'310.7
2017-Dec-13 09:30N 51°16' E 006°42'2 4.7
2017-Dec-13 09:01N 51°14' E 006°44'4 7.8
2017-Dec-13 08:30N 51°11' E 006°48'3 5.2
2017-Dec-13 07:57N 51°09' E 006°51'11 8.9
2017-Dec-13 06:43N 50°59' E 006°59'3 8.9
2017-Dec-13 06:26N 50°57' E 006°58'5 9.3
2017-Dec-13 05:53N 50°53' E 007°03'91 4.4
2017-Dec-12 09:11N 49°38' E 008°23'3 9.0
2017-Dec-12 08:49N 49°35' E 008°25'3 8.8
2017-Dec-12 08:30N 49°32' E 008°26'4 8.6
2017-Dec-12 08:01N 49°28' E 008°28'2 4.9
2017-Dec-12 07:30N 49°26' E 008°30'  
2017-Dec-07 14:39N 49°22' E 008°30'1 5.7
2017-Dec-07 14:30N 49°23' E 008°30'3 5.9
2017-Dec-07 14:00N 49°26' E 008°31'3 5.4
2017-Dec-07 13:30N 49°27' E 008°27'2 4.7
2017-Dec-07 13:00N 49°29' E 008°27'3 6.4
2017-Dec-07 12:30N 49°32' E 008°25'  
Track history (hours):
 
Tides and Currents Weather Stations Pressure Air Temp Water Temp Dewpoint Dewpoint Depression Visibility Wind Speed Wind Dir Waves Ship Positions

Fidato

Last reported at 2017-Dec-17 03:52 UTC. Time now 2017-Dec-17 04:21 UTC.
Position N 52°38' E 006°04'.

Length 135 m; draft 2.5 m.

Type: Ship. MMSI: 244670975.

Date/timePositionNaut miles runAvg speedWind from/ knotsBaromVisibWave heightAir tempDewpointWater temp
2017-Dec-17 03:52N 52°38' E 006°04'0 0.0
2017-Dec-17 03:29N 52°38' E 006°04'0 0.0
2017-Dec-17 03:00N 52°38' E 006°04'0 0.0
2017-Dec-17 02:30N 52°38' E 006°04'0 0.0
2017-Dec-17 02:00N 52°38' E 006°04'0 0.0
2017-Dec-17 01:30N 52°38' E 006°04'0 0.0
2017-Dec-17 01:00N 52°38' E 006°04'0 0.0
2017-Dec-17 00:30N 52°38' E 006°04'0 0.0
2017-Dec-17 00:00N 52°38' E 006°04'0 0.0
2017-Dec-16 23:30N 52°38' E 006°04'0 0.0
2017-Dec-16 22:59N 52°38' E 006°04'0 0.0
2017-Dec-16 22:29N 52°38' E 006°04'0 0.0
2017-Dec-16 22:00N 52°38' E 006°04'0 0.0
2017-Dec-16 21:28N 52°38' E 006°04'0 0.0
2017-Dec-16 20:59N 52°38' E 006°04'0 0.0
2017-Dec-16 20:30N 52°38' E 006°04'0 0.0
2017-Dec-16 19:59N 52°38' E 006°04'0 0.0
2017-Dec-16 19:24N 52°38' E 006°04'0 0.0
2017-Dec-16 19:00N 52°38' E 006°04'0 0.0
2017-Dec-16 18:30N 52°38' E 006°04'0 0.0
2017-Dec-16 18:00N 52°38' E 006°04'0 0.0
2017-Dec-16 17:29N 52°38' E 006°04'0 0.0
2017-Dec-16 17:00N 52°38' E 006°04'0 0.0
2017-Dec-16 16:25N 52°38' E 006°04'0 0.0
2017-Dec-16 15:59N 52°38' E 006°04'0 0.0
2017-Dec-16 15:30N 52°38' E 006°04'0 0.0
2017-Dec-16 15:00N 52°38' E 006°04'0 0.0
2017-Dec-16 14:30N 52°38' E 006°04'0 0.0
2017-Dec-16 14:00N 52°38' E 006°04'0 0.0
2017-Dec-16 13:30N 52°38' E 006°04'3 5.7
2017-Dec-16 13:00N 52°35' E 006°05'1 1.1
2017-Dec-16 12:23N 52°35' E 006°06'0 0.0
2017-Dec-16 09:38N 52°35' E 006°06'0 0.0
2017-Dec-16 09:23N 52°35' E 006°06'0 0.0
2017-Dec-16 09:00N 52°35' E 006°06'0 0.0
2017-Dec-16 08:30N 52°35' E 006°06'0 0.0
2017-Dec-16 08:00N 52°35' E 006°06'0 0.0
2017-Dec-16 07:30N 52°35' E 006°06'0 0.0
2017-Dec-16 07:00N 52°35' E 006°06'0 0.0
2017-Dec-16 06:30N 52°35' E 006°06'0 0.1
2017-Dec-16 06:00N 52°35' E 006°06'0 0.0
2017-Dec-16 05:30N 52°35' E 006°06'0 0.0
2017-Dec-16 05:00N 52°35' E 006°06'0 0.0
2017-Dec-15 18:37N 52°35' E 006°06'0 0.7
2017-Dec-15 18:30N 52°35' E 006°06'1 1.9
2017-Dec-15 18:00N 52°36' E 006°05'2 4.4
2017-Dec-15 17:30N 52°38' E 006°05'2 4.0
2017-Dec-15 17:00N 52°38' E 006°01'3 5.7
2017-Dec-15 16:30N 52°38' E 005°57'3 6.3
2017-Dec-15 16:00N 52°37' E 005°52'3 5.2
2017-Dec-15 15:30N 52°37' E 005°48'2 3.5
2017-Dec-15 15:00N 52°36' E 005°45'3 6.6
2017-Dec-15 14:30N 52°36' E 005°39'3 6.9
2017-Dec-15 14:00N 52°37' E 005°34'4 7.9
2017-Dec-15 13:30N 52°34' E 005°29'3 5.7
2017-Dec-15 13:00N 52°32' E 005°26'1 2.1
2017-Dec-15 12:30N 52°31' E 005°25'4 7.3
2017-Dec-15 12:00N 52°30' E 005°20'4 7.3
2017-Dec-15 11:30N 52°27' E 005°15'4 7.5
2017-Dec-15 11:00N 52°25' E 005°10'4 7.6
2017-Dec-15 10:30N 52°23' E 005°04'4 7.1
2017-Dec-15 10:01N 52°22' E 004°59'1 2.6
2017-Dec-15 09:31N 52°23' E 004°57'3 6.7
2017-Dec-15 09:00N 52°20' E 005°01'4 7.2
2017-Dec-15 08:30N 52°17' E 005°01'4 7.5
2017-Dec-15 08:00N 52°13' E 005°00'4 7.3
2017-Dec-15 07:30N 52°09' E 005°00'4 7.3
2017-Dec-15 07:00N 52°07' E 005°05'4 7.2
2017-Dec-15 06:30N 52°03' E 005°06'4 7.1
2017-Dec-15 06:00N 52°01' E 005°10'4 7.3
2017-Dec-15 05:24N 51°59' E 005°16'1 3.5
2017-Dec-15 05:00N 51°58' E 005°18'0 0.0
2017-Dec-15 04:30N 51°58' E 005°18'0 0.0
2017-Dec-15 04:00N 51°58' E 005°18'0 0.0
2017-Dec-15 02:30N 51°58' E 005°18'0 0.0
2017-Dec-15 01:00N 51°58' E 005°18'0 0.0
2017-Dec-15 00:30N 51°58' E 005°18'0 0.0
2017-Dec-14 18:27N 51°58' E 005°18'0 0.0
2017-Dec-14 18:00N 51°58' E 005°18'0 0.0
2017-Dec-14 17:28N 51°58' E 005°18'0 0.0
2017-Dec-14 16:58N 51°58' E 005°18'0 0.0
2017-Dec-14 16:30N 51°58' E 005°18'0 0.0
2017-Dec-14 16:00N 51°58' E 005°18'0 0.0
2017-Dec-14 15:00N 51°58' E 005°18'0 0.0
2017-Dec-14 14:30N 51°58' E 005°18'0 0.0
2017-Dec-14 14:00N 51°58' E 005°18'0 0.0
2017-Dec-14 13:30N 51°58' E 005°18'0 0.0
2017-Dec-14 13:00N 51°58' E 005°18'0 0.0
2017-Dec-14 12:30N 51°58' E 005°18'0 0.0
2017-Dec-14 12:00N 51°58' E 005°18'0 0.0
2017-Dec-14 11:30N 51°58' E 005°18'0 0.0
2017-Dec-14 11:00N 51°58' E 005°18'0 0.0
2017-Dec-14 10:30N 51°58' E 005°18'0 0.0
2017-Dec-14 09:59N 51°58' E 005°18'0 0.0
2017-Dec-14 09:30N 51°58' E 005°18'0 0.0
2017-Dec-14 09:00N 51°58' E 005°18'24 1.4
2017-Dec-13 15:56N 51°52' E 005°56'3 6.5
2017-Dec-13 15:30N 51°53' E 006°01'510.0
2017-Dec-13 15:00N 51°51' E 006°08'16 9.0
2017-Dec-13 13:14N 51°41' E 006°28'2 9.3
2017-Dec-13 13:00N 51°40' E 006°31'4 7.2
2017-Dec-13 12:30N 51°38' E 006°35'4 7.3
2017-Dec-13 12:00N 51°35' E 006°39'4 8.4
2017-Dec-13 11:29N 51°31' E 006°43'3 6.4
2017-Dec-13 11:00N 51°28' E 006°43'9 7.6
2017-Dec-13 09:48N 51°19' E 006°44'310.7
2017-Dec-13 09:30N 51°16' E 006°42'2 4.7
2017-Dec-13 09:01N 51°14' E 006°44'4 7.8
2017-Dec-13 08:30N 51°11' E 006°48'3 5.2
2017-Dec-13 07:57N 51°09' E 006°51'11 8.9
2017-Dec-13 06:43N 50°59' E 006°59'3 8.9
2017-Dec-13 06:26N 50°57' E 006°58'5 9.3
2017-Dec-13 05:53N 50°53' E 007°03'91 4.4
2017-Dec-12 09:11N 49°38' E 008°23'3 9.0
2017-Dec-12 08:49N 49°35' E 008°25'3 8.8
2017-Dec-12 08:30N 49°32' E 008°26'4 8.6
2017-Dec-12 08:01N 49°28' E 008°28'2 4.9
2017-Dec-12 07:30N 49°26' E 008°30'  
2017-Dec-07 14:39N 49°22' E 008°30'1 5.7
2017-Dec-07 14:30N 49°23' E 008°30'3 5.9
2017-Dec-07 14:00N 49°26' E 008°31'3 5.4
2017-Dec-07 13:30N 49°27' E 008°27'2 4.7
2017-Dec-07 13:00N 49°29' E 008°27'3 6.4
2017-Dec-07 12:30N 49°32' E 008°25'  

Dump ship's entire track history